SHASTA DAM (USBR) (SHA)

Elevation: 1067' · SACRAMENTO R basin · Operator: US Bureau of Reclamation

Provisional data, subject to change.
Query executed Friday at 11:13:16

Select a sensor type for a plot of data.
Note: Reservoir Flows are daily averages.

Earlier

Date RES ELE    STORAGE    RES CHG    TOC STO    ABV TOC    OUTFLOW    INFLOW    EVAP    FNF    RIV REL    PPT INC    RAIN    SPILL    DIS PWR   
 FEET   AF   AF   AF   AF   CFS   CFS   CFS   CFS   CFS   INCHES   INCHES   CFS   CFS  
11/10/2016 999.80 2824202 1954 3678330 -854128 3670 4681 26 4836 0 0.00 12.18 0 3670
11/11/2016 999.81 2824419 217 3657018 -832599 4016 4151 26 4366 0 0.00 12.18 0 4016
11/12/2016 999.81 2824419 0 3635706 -811288 4279 4324 45 4436 0 0.12 12.30 0 4279
11/13/2016 999.77 2823550 -869 3614395 -790845 4781 4394 51 3943 0 0.01 12.31 0 4781
11/14/2016 999.68 2821596 -1954 3593084 -771488 4605 3626 6 3895 0 0.00 12.31 0 4605
11/15/2016 999.58 2819425 -2171 3571772 -752347 4948 3866 13 4596 0 0.31 12.62 0 4948
11/16/2016 999.44 2816385 -3040 3550460 -734076 5005 3478 6 4154 0 0.07 12.69 0 5005
11/17/2016 999.32 2813780 -2605 3529149 -715369 4610 3303 6 3842 0 0.02 12.71 0 4610
11/18/2016 999.26 2812477 -1303 3507838 -695360 4023 3462 96 3836 0 0.00 12.71 0 4023
11/19/2016 999.67 2821379 8902 3486526 -665147 4247 8741 6 9147 0 1.25 13.96 0 4247
11/20/2016 1000.32 2835517 14138 3465215 -629698 4378 11512 6 14274 0 2.22 16.18 0 4378
11/21/2016 1000.75 2844887 9370 3443903 -599016 4357 9087 6 8194 0 0.23 16.41 0 4357
11/22/2016 1001.05 2851430 6543 3422592 -571162 4673 8004 32 8748 0 0.00 16.41 0 4673
11/23/2016 1001.39 2858880 7450 3401280 -542400 4642 8404 6 8122 0 0.85 17.26 0 4642
11/24/2016 1001.84 2868739 9859 3379969 -511230 4159 9149 19 7234 0 0.00 17.26 0 4159
11/25/2016 1002.21 2876869 8130 3358657 -481788 4461 8592 32 6960 0 0.01 17.27 0 4461
11/26/2016 1002.71 2887882 11013 3337346 -449464 4341 9899 6 9582 0 0.49 17.76 0 4341
11/27/2016 1003.10 2896484 8602 3316034 -419550 4427 8771 7 9245 0 1.56 19.32 0 4427
11/28/2016 1003.44 2904012 7528 3294723 -390711 4238 8040 7 8264 0 0.27 19.59 0 4238
11/29/2016 1003.55 2906447 2435 3273412 -366964 4423 5658 7 6915 0 0.27 19.86 0 4423
11/30/2016 1003.72 2910211 3764 3252100 -341889 4779 6690 13 6797 0 0.03 19.89 0 4779
12/01/2016 1003.84 2912868 2657 3252100 -339232 4499 5852 13 6509 377 0.03 19.92 0 4122
12/02/2016 1004.07 2917968 5100 3252100 -334132 4181 6798 46 5559 0 0.00 19.92 0 4181
12/03/2016 1004.20 2920862 2894 3252100 -331238 4630 6141 52 5627 0 0.00 19.92 0 4630
12/04/2016 1004.28 2922643 1781 3252100 -329457 4570 5501 33 5140 0 0.00 19.92 0 4570
12/05/2016 1004.31 2923311 668 3252100 -328789 4123 4467 7 4820 0 0.00 19.92 0 4123
12/06/2016 1004.34 2923979 668 3252100 -328121 4054 4417 26 4768 0 0.00 19.92 0 4054
12/07/2016 1004.46 2926651 2672 3252100 -325449 4737 6110 26 5548 649 0.00 19.92 0 4088
12/08/2016 1004.61 2929990 3339 3252100 -322110 4979 6669 7 5574 0 0.57 20.49 0 4979
12/09/2016 -- -- -- -- -- -- -- -- -- -- -- -- -- --

Later | Latest

Warning! This data is preliminary and subject to revision.

Show SHA Map | Plot SHA Data | 1 Month SHA Data | Real-Time SHA Data | SHA Info